sensor_id;sensor_type;location;lat;lon;timestamp;temperature;humidity
5786;DHT22;2919;48.630;9.000;2022-12-08T00:01:09;-0.20;99.90
5786;DHT22;2919;48.630;9.000;2022-12-08T00:03:35;-0.20;99.90
5786;DHT22;2919;48.630;9.000;2022-12-08T00:06:02;-0.20;99.90
5786;DHT22;2919;48.630;9.000;2022-12-08T00:08:47;-0.10;99.90
5786;DHT22;2919;48.630;9.000;2022-12-08T00:11:31;-0.30;99.90
5786;DHT22;2919;48.630;9.000;2022-12-08T00:13:56;-0.40;99.90
5786;DHT22;2919;48.630;9.000;2022-12-08T00:16:22;-0.50;99.90
5786;DHT22;2919;48.630;9.000;2022-12-08T00:18:48;-0.50;99.90
5786;DHT22;2919;48.630;9.000;2022-12-08T00:21:13;-0.50;99.90
5786;DHT22;2919;48.630;9.000;2022-12-08T00:23:39;-0.60;99.90
5786;DHT22;2919;48.630;9.000;2022-12-08T00:26:05;-0.60;99.90
5786;DHT22;2919;48.630;9.000;2022-12-08T00:28:31;-0.70;99.90
5786;DHT22;2919;48.630;9.000;2022-12-08T00:30:57;-0.70;99.90
5786;DHT22;2919;48.630;9.000;2022-12-08T00:33:23;-0.70;99.90
5786;DHT22;2919;48.630;9.000;2022-12-08T00:35:49;-0.70;99.90
5786;DHT22;2919;48.630;9.000;2022-12-08T00:38:15;-0.70;99.90
5786;DHT22;2919;48.630;9.000;2022-12-08T00:40:46;-0.70;99.90
5786;DHT22;2919;48.630;9.000;2022-12-08T00:43:13;-0.80;99.90
5786;DHT22;2919;48.630;9.000;2022-12-08T00:45:38;-0.80;99.90
5786;DHT22;2919;48.630;9.000;2022-12-08T00:48:04;-0.90;99.90
5786;DHT22;2919;48.630;9.000;2022-12-08T00:50:30;-0.90;99.90
5786;DHT22;2919;48.630;9.000;2022-12-08T00:52:56;-0.90;99.90
5786;DHT22;2919;48.630;9.000;2022-12-08T00:55:22;-0.90;99.90
5786;DHT22;2919;48.630;9.000;2022-12-08T00:57:47;-0.90;99.90
5786;DHT22;2919;48.630;9.000;2022-12-08T01:00:13;-0.90;99.90
5786;DHT22;2919;48.630;9.000;2022-12-08T01:02:39;-0.90;99.90
5786;DHT22;2919;48.630;9.000;2022-12-08T01:05:05;-0.90;99.90
5786;DHT22;2919;48.630;9.000;2022-12-08T01:07:31;-0.90;99.90
5786;DHT22;2919;48.630;9.000;2022-12-08T01:09:56;-0.90;99.90
5786;DHT22;2919;48.630;9.000;2022-12-08T01:12:22;-0.90;99.90
5786;DHT22;2919;48.630;9.000;2022-12-08T01:14:48;-0.90;99.90
5786;DHT22;2919;48.630;9.000;2022-12-08T01:17:14;-0.90;99.90
5786;DHT22;2919;48.630;9.000;2022-12-08T01:19:39;-1.00;99.90
5786;DHT22;2919;48.630;9.000;2022-12-08T01:22:05;-1.00;99.90
5786;DHT22;2919;48.630;9.000;2022-12-08T01:24:31;-1.10;99.90
5786;DHT22;2919;48.630;9.000;2022-12-08T01:26:56;-1.20;99.90
5786;DHT22;2919;48.630;9.000;2022-12-08T01:29:22;-1.20;99.90
5786;DHT22;2919;48.630;9.000;2022-12-08T01:31:47;-1.20;99.90
5786;DHT22;2919;48.630;9.000;2022-12-08T01:34:13;-1.20;99.90
5786;DHT22;2919;48.630;9.000;2022-12-08T01:36:40;-1.30;99.90
5786;DHT22;2919;48.630;9.000;2022-12-08T01:39:10;-1.20;99.90
5786;DHT22;2919;48.630;9.000;2022-12-08T01:41:38;-1.30;99.90
5786;DHT22;2919;48.630;9.000;2022-12-08T01:46:40;-1.30;99.90
5786;DHT22;2919;48.630;9.000;2022-12-08T01:51:59;-1.30;99.90
5786;DHT22;2919;48.630;9.000;2022-12-08T01:54:32;-1.30;99.90
5786;DHT22;2919;48.630;9.000;2022-12-08T01:57:02;-1.30;99.90
5786;DHT22;2919;48.630;9.000;2022-12-08T01:59:33;-1.30;99.90
5786;DHT22;2919;48.630;9.000;2022-12-08T02:01:59;-1.30;99.90
5786;DHT22;2919;48.630;9.000;2022-12-08T02:04:25;-1.30;99.90
5786;DHT22;2919;48.630;9.000;2022-12-08T02:06:51;-1.30;99.90
5786;DHT22;2919;48.630;9.000;2022-12-08T02:09:18;-1.30;99.90
5786;DHT22;2919;48.630;9.000;2022-12-08T02:11:44;-1.40;99.90
5786;DHT22;2919;48.630;9.000;2022-12-08T02:14:11;-1.40;99.90
5786;DHT22;2919;48.630;9.000;2022-12-08T02:17:02;-1.40;99.90
5786;DHT22;2919;48.630;9.000;2022-12-08T02:22:19;-1.40;99.90
5786;DHT22;2919;48.630;9.000;2022-12-08T02:41:17;-1.30;99.90
5786;DHT22;2919;48.630;9.000;2022-12-08T02:43:48;-1.30;99.90
5786;DHT22;2919;48.630;9.000;2022-12-08T02:46:27;-1.40;99.90
5786;DHT22;2919;48.630;9.000;2022-12-08T02:48:55;-1.40;99.90
5786;DHT22;2919;48.630;9.000;2022-12-08T02:51:21;-1.50;99.90
5786;DHT22;2919;48.630;9.000;2022-12-08T02:53:47;-1.40;99.90
5786;DHT22;2919;48.630;9.000;2022-12-08T03:11:00;-1.60;99.90
5786;DHT22;2919;48.630;9.000;2022-12-08T03:16:07;-1.70;99.90
5786;DHT22;2919;48.630;9.000;2022-12-08T03:18:38;-1.70;99.90
5786;DHT22;2919;48.630;9.000;2022-12-08T03:21:06;-1.80;99.90
5786;DHT22;2919;48.630;9.000;2022-12-08T03:23:35;-1.80;99.90
5786;DHT22;2919;48.630;9.000;2022-12-08T03:26:07;-1.80;99.90
5786;DHT22;2919;48.630;9.000;2022-12-08T03:28:35;-1.80;99.90
5786;DHT22;2919;48.630;9.000;2022-12-08T03:31:05;-1.80;99.90
5786;DHT22;2919;48.630;9.000;2022-12-08T03:33:35;-1.80;99.90
5786;DHT22;2919;48.630;9.000;2022-12-08T03:36:03;-1.70;99.90
5786;DHT22;2919;48.630;9.000;2022-12-08T03:38:38;-1.70;99.90
5786;DHT22;2919;48.630;9.000;2022-12-08T03:41:04;-1.70;99.90
5786;DHT22;2919;48.630;9.000;2022-12-08T03:43:49;-1.70;99.90
5786;DHT22;2919;48.630;9.000;2022-12-08T03:46:16;-1.70;99.90
5786;DHT22;2919;48.630;9.000;2022-12-08T03:48:42;-1.80;99.90
5786;DHT22;2919;48.630;9.000;2022-12-08T03:51:08;-1.80;99.90
5786;DHT22;2919;48.630;9.000;2022-12-08T03:53:34;-1.80;99.90
5786;DHT22;2919;48.630;9.000;2022-12-08T03:55:59;-1.80;99.90
5786;DHT22;2919;48.630;9.000;2022-12-08T03:58:25;-1.80;99.90
5786;DHT22;2919;48.630;9.000;2022-12-08T04:00:51;-1.90;99.90
5786;DHT22;2919;48.630;9.000;2022-12-08T04:03:17;-1.90;99.90
5786;DHT22;2919;48.630;9.000;2022-12-08T04:05:42;-1.90;99.90
5786;DHT22;2919;48.630;9.000;2022-12-08T04:08:08;-1.90;99.90
5786;DHT22;2919;48.630;9.000;2022-12-08T04:10:33;-1.90;99.90
5786;DHT22;2919;48.630;9.000;2022-12-08T04:12:59;-1.90;99.90
5786;DHT22;2919;48.630;9.000;2022-12-08T04:15:24;-1.90;99.90
5786;DHT22;2919;48.630;9.000;2022-12-08T04:17:50;-2.00;99.90
5786;DHT22;2919;48.630;9.000;2022-12-08T04:20:16;-2.00;99.90
5786;DHT22;2919;48.630;9.000;2022-12-08T04:22:41;-1.90;99.90
5786;DHT22;2919;48.630;9.000;2022-12-08T04:25:07;-1.90;99.90
5786;DHT22;2919;48.630;9.000;2022-12-08T04:27:32;-2.00;99.90
5786;DHT22;2919;48.630;9.000;2022-12-08T04:29:58;-2.00;99.90
5786;DHT22;2919;48.630;9.000;2022-12-08T04:32:24;-2.00;99.90
5786;DHT22;2919;48.630;9.000;2022-12-08T04:34:49;-2.10;99.90
5786;DHT22;2919;48.630;9.000;2022-12-08T04:37:15;-2.10;99.90
5786;DHT22;2919;48.630;9.000;2022-12-08T04:39:40;-2.00;99.90
5786;DHT22;2919;48.630;9.000;2022-12-08T04:42:06;-2.00;99.90
5786;DHT22;2919;48.630;9.000;2022-12-08T04:44:31;-2.00;99.90
5786;DHT22;2919;48.630;9.000;2022-12-08T04:46:57;-2.10;99.90
5786;DHT22;2919;48.630;9.000;2022-12-08T04:49:23;-2.00;99.90
5786;DHT22;2919;48.630;9.000;2022-12-08T04:51:48;-2.00;99.90
5786;DHT22;2919;48.630;9.000;2022-12-08T04:54:14;-2.10;99.90
5786;DHT22;2919;48.630;9.000;2022-12-08T04:56:39;-2.20;99.90
5786;DHT22;2919;48.630;9.000;2022-12-08T04:59:05;-2.30;99.90
5786;DHT22;2919;48.630;9.000;2022-12-08T05:01:30;-2.40;99.90
5786;DHT22;2919;48.630;9.000;2022-12-08T05:03:56;-2.40;99.90
5786;DHT22;2919;48.630;9.000;2022-12-08T05:06:22;-2.40;99.90
5786;DHT22;2919;48.630;9.000;2022-12-08T05:08:48;-2.50;99.90
5786;DHT22;2919;48.630;9.000;2022-12-08T05:11:14;-2.40;99.90
5786;DHT22;2919;48.630;9.000;2022-12-08T05:13:39;-2.40;99.90
5786;DHT22;2919;48.630;9.000;2022-12-08T05:16:08;-2.40;99.90
5786;DHT22;2919;48.630;9.000;2022-12-08T05:18:34;-2.40;99.90
5786;DHT22;2919;48.630;9.000;2022-12-08T05:21:00;-2.40;99.90
5786;DHT22;2919;48.630;9.000;2022-12-08T05:23:26;-2.40;99.90
5786;DHT22;2919;48.630;9.000;2022-12-08T05:25:52;-2.40;99.90
5786;DHT22;2919;48.630;9.000;2022-12-08T05:28:17;-2.40;99.90
5786;DHT22;2919;48.630;9.000;2022-12-08T05:30:43;-2.50;99.90
5786;DHT22;2919;48.630;9.000;2022-12-08T05:33:09;-2.50;99.90
5786;DHT22;2919;48.630;9.000;2022-12-08T05:35:34;-2.50;99.90
5786;DHT22;2919;48.630;9.000;2022-12-08T05:38:00;-2.50;99.90
5786;DHT22;2919;48.630;9.000;2022-12-08T05:40:25;-2.60;99.90
5786;DHT22;2919;48.630;9.000;2022-12-08T05:42:52;-2.50;99.90
5786;DHT22;2919;48.630;9.000;2022-12-08T05:45:18;-2.60;99.90
5786;DHT22;2919;48.630;9.000;2022-12-08T05:47:43;-2.60;99.90
5786;DHT22;2919;48.630;9.000;2022-12-08T05:50:09;-2.70;99.90
5786;DHT22;2919;48.630;9.000;2022-12-08T05:52:35;-2.60;99.90
5786;DHT22;2919;48.630;9.000;2022-12-08T05:55:01;-2.60;99.90
5786;DHT22;2919;48.630;9.000;2022-12-08T05:57:27;-2.60;99.90
5786;DHT22;2919;48.630;9.000;2022-12-08T05:59:52;-2.60;99.90
5786;DHT22;2919;48.630;9.000;2022-12-08T06:02:18;-2.60;99.90
5786;DHT22;2919;48.630;9.000;2022-12-08T06:04:43;-2.70;99.90
5786;DHT22;2919;48.630;9.000;2022-12-08T06:07:09;-2.60;99.90
5786;DHT22;2919;48.630;9.000;2022-12-08T06:09:35;-2.70;99.90
5786;DHT22;2919;48.630;9.000;2022-12-08T06:12:01;-2.80;99.90
5786;DHT22;2919;48.630;9.000;2022-12-08T06:14:26;-2.90;99.90
5786;DHT22;2919;48.630;9.000;2022-12-08T06:16:52;-3.00;99.90
5786;DHT22;2919;48.630;9.000;2022-12-08T06:19:18;-3.00;99.90
5786;DHT22;2919;48.630;9.000;2022-12-08T06:21:43;-2.90;99.90
5786;DHT22;2919;48.630;9.000;2022-12-08T06:24:09;-3.00;99.90
5786;DHT22;2919;48.630;9.000;2022-12-08T06:26:35;-3.00;99.90
5786;DHT22;2919;48.630;9.000;2022-12-08T06:29:00;-3.10;99.90
5786;DHT22;2919;48.630;9.000;2022-12-08T06:31:26;-3.10;99.90
5786;DHT22;2919;48.630;9.000;2022-12-08T06:33:53;-3.00;99.90
5786;DHT22;2919;48.630;9.000;2022-12-08T06:36:21;-3.00;99.90
5786;DHT22;2919;48.630;9.000;2022-12-08T06:38:48;-3.00;99.90
5786;DHT22;2919;48.630;9.000;2022-12-08T06:41:14;-3.10;99.90
5786;DHT22;2919;48.630;9.000;2022-12-08T06:43:40;-3.00;99.90
5786;DHT22;2919;48.630;9.000;2022-12-08T06:46:09;-3.00;99.90
5786;DHT22;2919;48.630;9.000;2022-12-08T06:48:35;-3.10;99.90
5786;DHT22;2919;48.630;9.000;2022-12-08T06:51:16;-3.10;99.90
5786;DHT22;2919;48.630;9.000;2022-12-08T06:53:43;-3.10;99.90
5786;DHT22;2919;48.630;9.000;2022-12-08T06:56:09;-3.10;99.90
5786;DHT22;2919;48.630;9.000;2022-12-08T06:58:35;-3.10;99.90
5786;DHT22;2919;48.630;9.000;2022-12-08T07:01:09;-3.10;99.90
5786;DHT22;2919;48.630;9.000;2022-12-08T07:03:35;-3.00;99.90
5786;DHT22;2919;48.630;9.000;2022-12-08T07:06:02;-3.00;99.90
5786;DHT22;2919;48.630;9.000;2022-12-08T07:08:27;-3.00;99.90
5786;DHT22;2919;48.630;9.000;2022-12-08T07:10:53;-3.00;99.90
5786;DHT22;2919;48.630;9.000;2022-12-08T07:13:18;-3.00;99.90
5786;DHT22;2919;48.630;9.000;2022-12-08T07:15:44;-3.00;99.90
5786;DHT22;2919;48.630;9.000;2022-12-08T07:18:10;-3.20;99.90
5786;DHT22;2919;48.630;9.000;2022-12-08T07:20:35;-3.20;99.90
5786;DHT22;2919;48.630;9.000;2022-12-08T07:23:01;-3.20;99.90
5786;DHT22;2919;48.630;9.000;2022-12-08T07:25:26;-3.10;99.90
5786;DHT22;2919;48.630;9.000;2022-12-08T07:27:52;-3.10;99.90
5786;DHT22;2919;48.630;9.000;2022-12-08T07:30:18;-3.20;99.90
5786;DHT22;2919;48.630;9.000;2022-12-08T07:32:44;-3.10;99.90
5786;DHT22;2919;48.630;9.000;2022-12-08T07:35:10;-3.10;99.90
5786;DHT22;2919;48.630;9.000;2022-12-08T07:37:36;-3.10;99.90
5786;DHT22;2919;48.630;9.000;2022-12-08T07:40:03;-3.00;99.90
5786;DHT22;2919;48.630;9.000;2022-12-08T07:42:29;-2.90;99.90
5786;DHT22;2919;48.630;9.000;2022-12-08T07:44:55;-2.90;99.90
5786;DHT22;2919;48.630;9.000;2022-12-08T07:47:20;-2.90;99.90
5786;DHT22;2919;48.630;9.000;2022-12-08T07:49:46;-2.90;99.90
5786;DHT22;2919;48.630;9.000;2022-12-08T07:52:11;-2.80;99.90
5786;DHT22;2919;48.630;9.000;2022-12-08T07:54:37;-2.80;99.90
5786;DHT22;2919;48.630;9.000;2022-12-08T07:57:03;-2.80;99.90
5786;DHT22;2919;48.630;9.000;2022-12-08T07:59:30;-2.80;99.90
5786;DHT22;2919;48.630;9.000;2022-12-08T08:01:56;-2.80;99.90
5786;DHT22;2919;48.630;9.000;2022-12-08T08:04:22;-2.70;99.90
5786;DHT22;2919;48.630;9.000;2022-12-08T08:06:47;-2.60;99.90
5786;DHT22;2919;48.630;9.000;2022-12-08T08:09:13;-2.40;99.90
5786;DHT22;2919;48.630;9.000;2022-12-08T08:11:38;-2.30;99.90
5786;DHT22;2919;48.630;9.000;2022-12-08T08:14:04;-2.10;99.90
5786;DHT22;2919;48.630;9.000;2022-12-08T08:16:30;-2.00;99.90
5786;DHT22;2919;48.630;9.000;2022-12-08T08:18:55;-1.90;99.90
5786;DHT22;2919;48.630;9.000;2022-12-08T08:21:21;-1.80;99.90
5786;DHT22;2919;48.630;9.000;2022-12-08T08:23:47;-1.70;99.90
5786;DHT22;2919;48.630;9.000;2022-12-08T08:26:13;-1.60;99.90
5786;DHT22;2919;48.630;9.000;2022-12-08T08:28:38;-1.50;99.90
5786;DHT22;2919;48.630;9.000;2022-12-08T08:31:05;-1.40;99.90
5786;DHT22;2919;48.630;9.000;2022-12-08T08:33:31;-1.40;99.90
5786;DHT22;2919;48.630;9.000;2022-12-08T08:35:57;-1.30;99.90
5786;DHT22;2919;48.630;9.000;2022-12-08T08:38:23;-1.20;99.90
5786;DHT22;2919;48.630;9.000;2022-12-08T08:40:49;-1.10;99.90
5786;DHT22;2919;48.630;9.000;2022-12-08T08:43:14;-1.00;99.90
5786;DHT22;2919;48.630;9.000;2022-12-08T08:45:58;-0.90;99.90
5786;DHT22;2919;48.630;9.000;2022-12-08T08:48:25;-0.80;99.90
5786;DHT22;2919;48.630;9.000;2022-12-08T08:50:51;-0.70;99.90
5786;DHT22;2919;48.630;9.000;2022-12-08T08:53:17;-0.50;99.90
5786;DHT22;2919;48.630;9.000;2022-12-08T08:55:43;-0.40;99.90
5786;DHT22;2919;48.630;9.000;2022-12-08T08:58:09;-0.40;99.90
5786;DHT22;2919;48.630;9.000;2022-12-08T09:00:34;-0.40;99.90
5786;DHT22;2919;48.630;9.000;2022-12-08T09:03:00;-0.30;99.90
5786;DHT22;2919;48.630;9.000;2022-12-08T09:05:25;-0.30;99.90
5786;DHT22;2919;48.630;9.000;2022-12-08T09:07:51;-0.30;99.90
5786;DHT22;2919;48.630;9.000;2022-12-08T09:10:16;-0.20;99.90
5786;DHT22;2919;48.630;9.000;2022-12-08T09:12:42;-0.20;99.90
5786;DHT22;2919;48.630;9.000;2022-12-08T09:15:08;-0.20;99.90
5786;DHT22;2919;48.630;9.000;2022-12-08T09:17:34;-0.10;99.90
5786;DHT22;2919;48.630;9.000;2022-12-08T09:19:59;-0.10;99.90
5786;DHT22;2919;48.630;9.000;2022-12-08T09:22:25;0.00;99.90
5786;DHT22;2919;48.630;9.000;2022-12-08T09:24:51;0.00;99.90
5786;DHT22;2919;48.630;9.000;2022-12-08T09:27:17;0.10;99.90
5786;DHT22;2919;48.630;9.000;2022-12-08T09:29:42;0.10;99.90
5786;DHT22;2919;48.630;9.000;2022-12-08T09:32:08;0.10;99.90
5786;DHT22;2919;48.630;9.000;2022-12-08T09:34:34;0.20;99.90
5786;DHT22;2919;48.630;9.000;2022-12-08T09:37:00;0.30;99.90
5786;DHT22;2919;48.630;9.000;2022-12-08T09:39:26;0.40;99.90
5786;DHT22;2919;48.630;9.000;2022-12-08T09:42:03;0.50;99.90
5786;DHT22;2919;48.630;9.000;2022-12-08T09:44:43;0.70;99.90
5786;DHT22;2919;48.630;9.000;2022-12-08T09:47:20;0.90;99.90
5786;DHT22;2919;48.630;9.000;2022-12-08T09:53:02;0.80;99.90
5786;DHT22;2919;48.630;9.000;2022-12-08T09:55:53;0.90;99.90
5786;DHT22;2919;48.630;9.000;2022-12-08T09:58:59;1.00;99.90
5786;DHT22;2919;48.630;9.000;2022-12-08T10:01:27;1.00;99.90
5786;DHT22;2919;48.630;9.000;2022-12-08T10:03:54;1.10;99.90
5786;DHT22;2919;48.630;9.000;2022-12-08T10:17:40;1.70;99.90
5786;DHT22;2919;48.630;9.000;2022-12-08T10:20:16;1.80;99.90
5786;DHT22;2919;48.630;9.000;2022-12-08T10:22:43;1.90;99.90
5786;DHT22;2919;48.630;9.000;2022-12-08T10:25:18;2.00;99.90
5786;DHT22;2919;48.630;9.000;2022-12-08T10:27:45;2.10;99.90
5786;DHT22;2919;48.630;9.000;2022-12-08T10:30:13;2.10;99.90
5786;DHT22;2919;48.630;9.000;2022-12-08T10:32:44;2.10;99.90
5786;DHT22;2919;48.630;9.000;2022-12-08T10:35:12;2.20;99.90
5786;DHT22;2919;48.630;9.000;2022-12-08T10:37:38;2.30;99.90
5786;DHT22;2919;48.630;9.000;2022-12-08T10:40:16;2.40;99.90
5786;DHT22;2919;48.630;9.000;2022-12-08T10:42:47;2.60;99.90
5786;DHT22;2919;48.630;9.000;2022-12-08T10:45:28;2.70;99.90
5786;DHT22;2919;48.630;9.000;2022-12-08T10:50:43;2.70;99.90
5786;DHT22;2919;48.630;9.000;2022-12-08T10:53:13;2.70;99.90
5786;DHT22;2919;48.630;9.000;2022-12-08T10:55:44;2.80;99.90
5786;DHT22;2919;48.630;9.000;2022-12-08T11:00:58;3.00;99.90
5786;DHT22;2919;48.630;9.000;2022-12-08T11:03:30;3.10;99.90
5786;DHT22;2919;48.630;9.000;2022-12-08T11:06:08;3.00;99.90
5786;DHT22;2919;48.630;9.000;2022-12-08T11:08:53;3.10;99.90
5786;DHT22;2919;48.630;9.000;2022-12-08T11:11:20;3.20;99.90
5786;DHT22;2919;48.630;9.000;2022-12-08T11:13:47;3.20;99.90
5786;DHT22;2919;48.630;9.000;2022-12-08T11:16:15;3.30;99.90
5786;DHT22;2919;48.630;9.000;2022-12-08T11:18:44;3.40;99.90
5786;DHT22;2919;48.630;9.000;2022-12-08T11:21:14;3.40;99.90
5786;DHT22;2919;48.630;9.000;2022-12-08T11:23:42;3.30;99.90
5786;DHT22;2919;48.630;9.000;2022-12-08T11:28:43;3.30;99.90
5786;DHT22;2919;48.630;9.000;2022-12-08T11:31:39;3.50;99.90
5786;DHT22;2919;48.630;9.000;2022-12-08T11:34:02;3.30;99.90
5786;DHT22;2919;48.630;9.000;2022-12-08T11:36:29;3.40;99.90
5786;DHT22;2919;48.630;9.000;2022-12-08T11:38:59;3.50;99.90
5786;DHT22;2919;48.630;9.000;2022-12-08T11:41:33;3.50;99.90
5786;DHT22;2919;48.630;9.000;2022-12-08T11:44:04;3.60;99.90
5786;DHT22;2919;48.630;9.000;2022-12-08T11:49:13;3.50;99.90
5786;DHT22;2919;48.630;9.000;2022-12-08T11:52:19;3.40;99.90
5786;DHT22;2919;48.630;9.000;2022-12-08T11:57:19;3.60;99.90
5786;DHT22;2919;48.630;9.000;2022-12-08T11:59:49;3.60;99.90
5786;DHT22;2919;48.630;9.000;2022-12-08T12:02:30;3.60;99.90
5786;DHT22;2919;48.630;9.000;2022-12-08T12:05:02;3.60;99.90
5786;DHT22;2919;48.630;9.000;2022-12-08T12:10:31;3.60;99.90
5786;DHT22;2919;48.630;9.000;2022-12-08T12:13:14;3.50;99.90
5786;DHT22;2919;48.630;9.000;2022-12-08T12:18:42;3.40;99.90
5786;DHT22;2919;48.630;9.000;2022-12-08T12:23:56;3.10;99.90
5786;DHT22;2919;48.630;9.000;2022-12-08T12:26:31;3.10;99.90
5786;DHT22;2919;48.630;9.000;2022-12-08T12:29:13;3.10;99.90
5786;DHT22;2919;48.630;9.000;2022-12-08T12:31:45;3.20;99.90
5786;DHT22;2919;48.630;9.000;2022-12-08T12:34:19;3.20;99.90
5786;DHT22;2919;48.630;9.000;2022-12-08T12:36:56;3.20;99.90
5786;DHT22;2919;48.630;9.000;2022-12-08T12:39:25;3.10;99.90
5786;DHT22;2919;48.630;9.000;2022-12-08T12:42:00;2.90;99.90
5786;DHT22;2919;48.630;9.000;2022-12-08T12:44:44;2.80;99.90
5786;DHT22;2919;48.630;9.000;2022-12-08T12:47:11;2.60;99.90
5786;DHT22;2919;48.630;9.000;2022-12-08T12:59:45;2.70;99.90
5786;DHT22;2919;48.630;9.000;2022-12-08T13:02:36;2.60;99.90
5786;DHT22;2919;48.630;9.000;2022-12-08T13:05:07;2.70;99.90
5786;DHT22;2919;48.630;9.000;2022-12-08T13:10:29;2.70;99.90
5786;DHT22;2919;48.630;9.000;2022-12-08T13:16:12;2.60;99.90
5786;DHT22;2919;48.630;9.000;2022-12-08T13:18:41;2.60;99.90
5786;DHT22;2919;48.630;9.000;2022-12-08T13:26:21;2.30;99.90
5786;DHT22;2919;48.630;9.000;2022-12-08T13:31:55;2.10;99.90
5786;DHT22;2919;48.630;9.000;2022-12-08T13:34:44;2.10;99.90
5786;DHT22;2919;48.630;9.000;2022-12-08T13:37:31;2.20;99.90
5786;DHT22;2919;48.630;9.000;2022-12-08T13:40:36;2.30;99.90
5786;DHT22;2919;48.630;9.000;2022-12-08T13:43:05;2.30;99.90
5786;DHT22;2919;48.630;9.000;2022-12-08T13:45:35;2.40;99.90
5786;DHT22;2919;48.630;9.000;2022-12-08T13:55:43;2.30;99.90
5786;DHT22;2919;48.630;9.000;2022-12-08T13:58:19;2.30;99.90
5786;DHT22;2919;48.630;9.000;2022-12-08T14:03:50;2.30;99.90
5786;DHT22;2919;48.630;9.000;2022-12-08T14:06:19;2.30;99.90
5786;DHT22;2919;48.630;9.000;2022-12-08T14:08:51;2.30;99.90
5786;DHT22;2919;48.630;9.000;2022-12-08T14:11:46;2.30;99.90
5786;DHT22;2919;48.630;9.000;2022-12-08T14:14:18;2.30;99.90
5786;DHT22;2919;48.630;9.000;2022-12-08T14:16:57;2.30;99.90
5786;DHT22;2919;48.630;9.000;2022-12-08T14:19:26;2.30;99.90
5786;DHT22;2919;48.630;9.000;2022-12-08T14:22:12;2.30;99.90
5786;DHT22;2919;48.630;9.000;2022-12-08T14:24:45;2.30;99.90
5786;DHT22;2919;48.630;9.000;2022-12-08T14:27:15;2.30;99.90
5786;DHT22;2919;48.630;9.000;2022-12-08T14:29:45;2.30;99.90
5786;DHT22;2919;48.630;9.000;2022-12-08T14:37:34;2.10;99.90
5786;DHT22;2919;48.630;9.000;2022-12-08T14:40:03;2.10;99.90
5786;DHT22;2919;48.630;9.000;2022-12-08T14:42:29;2.10;99.90
5786;DHT22;2919;48.630;9.000;2022-12-08T14:45:09;2.10;99.90
5786;DHT22;2919;48.630;9.000;2022-12-08T14:47:35;2.10;99.90
5786;DHT22;2919;48.630;9.000;2022-12-08T14:50:03;2.00;99.90
5786;DHT22;2919;48.630;9.000;2022-12-08T14:52:30;2.00;99.90
5786;DHT22;2919;48.630;9.000;2022-12-08T14:54:56;1.90;99.90
5786;DHT22;2919;48.630;9.000;2022-12-08T14:57:28;1.90;99.90
5786;DHT22;2919;48.630;9.000;2022-12-08T14:59:56;1.90;99.90
5786;DHT22;2919;48.630;9.000;2022-12-08T15:02:25;1.90;99.90
5786;DHT22;2919;48.630;9.000;2022-12-08T15:05:09;1.90;99.90
5786;DHT22;2919;48.630;9.000;2022-12-08T15:07:53;1.80;99.90
5786;DHT22;2919;48.630;9.000;2022-12-08T15:15:45;1.70;99.90
5786;DHT22;2919;48.630;9.000;2022-12-08T15:18:29;1.70;99.90
5786;DHT22;2919;48.630;9.000;2022-12-08T15:21:00;1.70;99.90
5786;DHT22;2919;48.630;9.000;2022-12-08T15:23:29;1.70;99.90
5786;DHT22;2919;48.630;9.000;2022-12-08T15:25:57;1.70;99.90
5786;DHT22;2919;48.630;9.000;2022-12-08T15:28:27;1.70;99.90
5786;DHT22;2919;48.630;9.000;2022-12-08T15:30:55;1.70;99.90
5786;DHT22;2919;48.630;9.000;2022-12-08T15:33:21;1.70;99.90
5786;DHT22;2919;48.630;9.000;2022-12-08T15:35:48;1.70;99.90
5786;DHT22;2919;48.630;9.000;2022-12-08T15:38:27;1.70;99.90
5786;DHT22;2919;48.630;9.000;2022-12-08T15:40:56;1.70;99.90
5786;DHT22;2919;48.630;9.000;2022-12-08T15:43:25;1.60;99.90
5786;DHT22;2919;48.630;9.000;2022-12-08T15:45:51;1.60;99.90
5786;DHT22;2919;48.630;9.000;2022-12-08T15:48:21;1.60;99.90
5786;DHT22;2919;48.630;9.000;2022-12-08T15:50:47;1.50;99.90
5786;DHT22;2919;48.630;9.000;2022-12-08T15:53:13;1.50;99.90
5786;DHT22;2919;48.630;9.000;2022-12-08T15:55:39;1.50;99.90
5786;DHT22;2919;48.630;9.000;2022-12-08T15:58:05;1.50;99.90
5786;DHT22;2919;48.630;9.000;2022-12-08T16:00:34;1.50;99.90
5786;DHT22;2919;48.630;9.000;2022-12-08T16:03:00;1.50;99.90
5786;DHT22;2919;48.630;9.000;2022-12-08T16:05:26;1.50;99.90
5786;DHT22;2919;48.630;9.000;2022-12-08T16:07:53;1.40;99.90
5786;DHT22;2919;48.630;9.000;2022-12-08T16:10:25;1.40;99.90
5786;DHT22;2919;48.630;9.000;2022-12-08T16:12:51;1.40;99.90
5786;DHT22;2919;48.630;9.000;2022-12-08T16:15:41;1.40;99.90
5786;DHT22;2919;48.630;9.000;2022-12-08T16:18:15;1.40;99.90
5786;DHT22;2919;48.630;9.000;2022-12-08T16:20:47;1.40;99.90
5786;DHT22;2919;48.630;9.000;2022-12-08T16:23:13;1.40;99.90
5786;DHT22;2919;48.630;9.000;2022-12-08T16:25:38;1.30;99.90
5786;DHT22;2919;48.630;9.000;2022-12-08T16:28:04;1.30;99.90
5786;DHT22;2919;48.630;9.000;2022-12-08T16:30:30;1.30;99.90
5786;DHT22;2919;48.630;9.000;2022-12-08T16:32:56;1.30;99.90
5786;DHT22;2919;48.630;9.000;2022-12-08T16:35:21;1.30;99.90
5786;DHT22;2919;48.630;9.000;2022-12-08T16:37:47;1.30;99.90
5786;DHT22;2919;48.630;9.000;2022-12-08T16:40:13;1.30;99.90
5786;DHT22;2919;48.630;9.000;2022-12-08T16:42:39;1.30;99.90
5786;DHT22;2919;48.630;9.000;2022-12-08T16:45:12;1.30;99.90
5786;DHT22;2919;48.630;9.000;2022-12-08T16:47:43;1.20;99.90
5786;DHT22;2919;48.630;9.000;2022-12-08T16:50:12;1.20;99.90
5786;DHT22;2919;48.630;9.000;2022-12-08T16:52:38;1.20;99.90
5786;DHT22;2919;48.630;9.000;2022-12-08T16:55:13;1.20;99.90
5786;DHT22;2919;48.630;9.000;2022-12-08T16:57:39;1.20;99.90
5786;DHT22;2919;48.630;9.000;2022-12-08T17:00:09;1.20;99.90
5786;DHT22;2919;48.630;9.000;2022-12-08T17:02:36;1.20;99.90
5786;DHT22;2919;48.630;9.000;2022-12-08T17:05:02;1.20;99.90
5786;DHT22;2919;48.630;9.000;2022-12-08T17:07:27;1.10;99.90
5786;DHT22;2919;48.630;9.000;2022-12-08T17:09:53;1.00;99.90
5786;DHT22;2919;48.630;9.000;2022-12-08T17:12:19;1.00;99.90
5786;DHT22;2919;48.630;9.000;2022-12-08T17:14:44;1.00;99.90
5786;DHT22;2919;48.630;9.000;2022-12-08T17:17:10;0.90;99.90
5786;DHT22;2919;48.630;9.000;2022-12-08T17:19:36;0.90;99.90
5786;DHT22;2919;48.630;9.000;2022-12-08T17:22:02;0.80;99.90
5786;DHT22;2919;48.630;9.000;2022-12-08T17:24:28;0.80;99.90
5786;DHT22;2919;48.630;9.000;2022-12-08T17:26:55;0.70;99.90
5786;DHT22;2919;48.630;9.000;2022-12-08T17:29:21;0.70;99.90
5786;DHT22;2919;48.630;9.000;2022-12-08T17:31:47;0.70;99.90
5786;DHT22;2919;48.630;9.000;2022-12-08T17:34:12;0.70;99.90
5786;DHT22;2919;48.630;9.000;2022-12-08T17:36:38;0.70;99.90
5786;DHT22;2919;48.630;9.000;2022-12-08T17:39:04;0.70;99.90
5786;DHT22;2919;48.630;9.000;2022-12-08T17:41:32;0.70;99.90
5786;DHT22;2919;48.630;9.000;2022-12-08T17:43:57;0.70;99.90
5786;DHT22;2919;48.630;9.000;2022-12-08T17:46:23;0.70;99.90
5786;DHT22;2919;48.630;9.000;2022-12-08T17:48:49;0.70;99.90
5786;DHT22;2919;48.630;9.000;2022-12-08T17:51:15;0.70;99.90
5786;DHT22;2919;48.630;9.000;2022-12-08T17:53:40;0.70;99.90
5786;DHT22;2919;48.630;9.000;2022-12-08T17:56:16;0.60;99.90
5786;DHT22;2919;48.630;9.000;2022-12-08T17:58:42;0.60;99.90
5786;DHT22;2919;48.630;9.000;2022-12-08T18:01:09;0.50;99.90
5786;DHT22;2919;48.630;9.000;2022-12-08T18:03:35;0.50;99.90
5786;DHT22;2919;48.630;9.000;2022-12-08T18:06:09;0.50;99.90
5786;DHT22;2919;48.630;9.000;2022-12-08T18:08:35;0.50;99.90
5786;DHT22;2919;48.630;9.000;2022-12-08T18:11:02;0.40;99.90
5786;DHT22;2919;48.630;9.000;2022-12-08T18:13:28;0.40;99.90
5786;DHT22;2919;48.630;9.000;2022-12-08T18:15:53;0.40;99.90
5786;DHT22;2919;48.630;9.000;2022-12-08T18:18:19;0.50;99.90
5786;DHT22;2919;48.630;9.000;2022-12-08T18:20:47;0.50;99.90
5786;DHT22;2919;48.630;9.000;2022-12-08T18:23:13;0.50;99.90